sensor_id;sensor_type;location;lat;lon;timestamp;P1;durP1;ratioP1;P2;durP2;ratioP2
66669;SDS011;53568;52.164;4.472;2023-02-01T00:02:15;14.81;;;9.34;;
66669;SDS011;53568;52.164;4.472;2023-02-01T00:04:41;17.33;;;10.69;;
66669;SDS011;53568;52.164;4.472;2023-02-01T00:07:06;15.52;;;9.57;;
66669;SDS011;53568;52.164;4.472;2023-02-01T00:09:32;16.91;;;10.24;;
66669;SDS011;53568;52.164;4.472;2023-02-01T00:11:57;16.15;;;9.90;;
66669;SDS011;53568;52.164;4.472;2023-02-01T00:14:27;15.89;;;9.78;;
66669;SDS011;53568;52.164;4.472;2023-02-01T00:16:52;13.93;;;8.71;;
66669;SDS011;53568;52.164;4.472;2023-02-01T00:19:18;14.52;;;9.13;;
66669;SDS011;53568;52.164;4.472;2023-02-01T00:21:44;14.64;;;9.19;;
66669;SDS011;53568;52.164;4.472;2023-02-01T00:24:10;15.17;;;9.49;;
66669;SDS011;53568;52.164;4.472;2023-02-01T00:26:37;15.23;;;9.47;;
66669;SDS011;53568;52.164;4.472;2023-02-01T00:29:06;15.07;;;9.53;;
66669;SDS011;53568;52.164;4.472;2023-02-01T00:31:35;15.61;;;9.75;;
66669;SDS011;53568;52.164;4.472;2023-02-01T00:34:01;16.72;;;10.19;;
66669;SDS011;53568;52.164;4.472;2023-02-01T00:36:26;16.00;;;9.79;;
66669;SDS011;53568;52.164;4.472;2023-02-01T00:38:53;15.18;;;9.32;;
66669;SDS011;53568;52.164;4.472;2023-02-01T00:41:19;15.32;;;9.43;;
66669;SDS011;53568;52.164;4.472;2023-02-01T00:43:46;14.88;;;9.24;;
66669;SDS011;53568;52.164;4.472;2023-02-01T00:46:13;14.07;;;8.89;;
66669;SDS011;53568;52.164;4.472;2023-02-01T00:48:40;14.29;;;8.99;;
66669;SDS011;53568;52.164;4.472;2023-02-01T00:51:08;16.17;;;10.08;;
66669;SDS011;53568;52.164;4.472;2023-02-01T00:53:39;15.22;;;9.44;;
66669;SDS011;53568;52.164;4.472;2023-02-01T00:56:04;15.96;;;9.81;;
66669;SDS011;53568;52.164;4.472;2023-02-01T00:58:30;15.11;;;9.28;;
66669;SDS011;53568;52.164;4.472;2023-02-01T01:03:35;15.43;;;9.59;;
66669;SDS011;53568;52.164;4.472;2023-02-01T01:06:10;15.11;;;9.50;;
66669;SDS011;53568;52.164;4.472;2023-02-01T01:08:38;16.00;;;9.95;;
66669;SDS011;53568;52.164;4.472;2023-02-01T01:11:12;15.90;;;9.94;;
66669;SDS011;53568;52.164;4.472;2023-02-01T01:13:40;15.69;;;9.68;;
66669;SDS011;53568;52.164;4.472;2023-02-01T01:16:07;17.09;;;10.57;;
66669;SDS011;53568;52.164;4.472;2023-02-01T01:18:35;17.61;;;10.84;;
66669;SDS011;53568;52.164;4.472;2023-02-01T01:21:01;15.74;;;10.00;;
66669;SDS011;53568;52.164;4.472;2023-02-01T01:23:29;15.92;;;10.08;;
66669;SDS011;53568;52.164;4.472;2023-02-01T01:25:55;16.88;;;10.49;;
66669;SDS011;53568;52.164;4.472;2023-02-01T01:28:21;17.63;;;11.01;;
66669;SDS011;53568;52.164;4.472;2023-02-01T01:30:46;15.49;;;9.79;;
66669;SDS011;53568;52.164;4.472;2023-02-01T01:33:12;15.66;;;9.98;;
66669;SDS011;53568;52.164;4.472;2023-02-01T01:35:38;17.47;;;10.95;;
66669;SDS011;53568;52.164;4.472;2023-02-01T01:38:03;17.84;;;10.99;;
66669;SDS011;53568;52.164;4.472;2023-02-01T01:40:29;18.96;;;11.66;;
66669;SDS011;53568;52.164;4.472;2023-02-01T01:42:56;20.10;;;12.24;;
66669;SDS011;53568;52.164;4.472;2023-02-01T01:45:29;18.93;;;11.63;;
66669;SDS011;53568;52.164;4.472;2023-02-01T01:47:59;17.06;;;10.68;;
66669;SDS011;53568;52.164;4.472;2023-02-01T01:50:35;16.77;;;10.41;;
66669;SDS011;53568;52.164;4.472;2023-02-01T01:53:08;17.09;;;10.62;;
66669;SDS011;53568;52.164;4.472;2023-02-01T01:55:40;17.84;;;11.01;;
66669;SDS011;53568;52.164;4.472;2023-02-01T01:58:12;16.46;;;10.22;;
66669;SDS011;53568;52.164;4.472;2023-02-01T02:00:43;17.23;;;10.90;;
66669;SDS011;53568;52.164;4.472;2023-02-01T02:05:55;15.36;;;9.77;;
66669;SDS011;53568;52.164;4.472;2023-02-01T02:08:24;18.02;;;11.06;;
66669;SDS011;53568;52.164;4.472;2023-02-01T02:10:52;17.33;;;10.61;;
66669;SDS011;53568;52.164;4.472;2023-02-01T02:13:24;17.13;;;10.57;;
66669;SDS011;53568;52.164;4.472;2023-02-01T02:16:05;16.88;;;10.57;;
66669;SDS011;53568;52.164;4.472;2023-02-01T02:37:58;17.00;;;10.61;;
66669;SDS011;53568;52.164;4.472;2023-02-01T02:43:32;15.71;;;9.94;;
66669;SDS011;53568;52.164;4.472;2023-02-01T02:46:25;16.00;;;10.13;;
66669;SDS011;53568;52.164;4.472;2023-02-01T02:49:27;17.25;;;10.78;;
66669;SDS011;53568;52.164;4.472;2023-02-01T02:52:33;17.23;;;10.69;;
66669;SDS011;53568;52.164;4.472;2023-02-01T02:55:27;17.98;;;11.10;;
66669;SDS011;53568;52.164;4.472;2023-02-01T02:57:57;17.20;;;10.72;;
66669;SDS011;53568;52.164;4.472;2023-02-01T03:00:42;15.98;;;10.00;;
66669;SDS011;53568;52.164;4.472;2023-02-01T03:03:28;15.74;;;9.78;;
66669;SDS011;53568;52.164;4.472;2023-02-01T03:06:13;17.03;;;10.54;;
66669;SDS011;53568;52.164;4.472;2023-02-01T03:08:42;15.98;;;10.03;;
66669;SDS011;53568;52.164;4.472;2023-02-01T03:11:11;17.65;;;11.11;;
66669;SDS011;53568;52.164;4.472;2023-02-01T03:16:44;16.22;;;10.28;;
66669;SDS011;53568;52.164;4.472;2023-02-01T03:19:27;16.22;;;10.31;;
66669;SDS011;53568;52.164;4.472;2023-02-01T03:22:08;15.33;;;9.87;;
66669;SDS011;53568;52.164;4.472;2023-02-01T03:28:14;15.52;;;9.94;;
66669;SDS011;53568;52.164;4.472;2023-02-01T03:30:37;16.02;;;10.17;;
66669;SDS011;53568;52.164;4.472;2023-02-01T03:33:09;16.45;;;10.46;;
66669;SDS011;53568;52.164;4.472;2023-02-01T03:44:44;14.74;;;9.78;;
66669;SDS011;53568;52.164;4.472;2023-02-01T03:47:10;16.30;;;10.44;;
66669;SDS011;53568;52.164;4.472;2023-02-01T03:49:45;16.41;;;10.60;;
66669;SDS011;53568;52.164;4.472;2023-02-01T03:52:28;14.81;;;9.42;;
66669;SDS011;53568;52.164;4.472;2023-02-01T03:55:06;15.42;;;9.71;;
66669;SDS011;53568;52.164;4.472;2023-02-01T03:57:41;15.12;;;9.53;;
66669;SDS011;53568;52.164;4.472;2023-02-01T04:00:16;15.42;;;9.82;;
66669;SDS011;53568;52.164;4.472;2023-02-01T04:02:43;15.59;;;9.97;;
66669;SDS011;53568;52.164;4.472;2023-02-01T04:05:08;14.78;;;9.39;;
66669;SDS011;53568;52.164;4.472;2023-02-01T04:07:34;17.18;;;10.60;;
66669;SDS011;53568;52.164;4.472;2023-02-01T04:09:59;15.93;;;9.93;;
66669;SDS011;53568;52.164;4.472;2023-02-01T04:12:25;14.33;;;9.36;;
66669;SDS011;53568;52.164;4.472;2023-02-01T04:14:51;16.35;;;10.48;;
66669;SDS011;53568;52.164;4.472;2023-02-01T04:17:16;15.26;;;9.86;;
66669;SDS011;53568;52.164;4.472;2023-02-01T04:19:45;14.27;;;9.21;;
66669;SDS011;53568;52.164;4.472;2023-02-01T04:22:10;13.78;;;8.98;;
66669;SDS011;53568;52.164;4.472;2023-02-01T04:24:37;12.85;;;8.48;;
66669;SDS011;53568;52.164;4.472;2023-02-01T04:27:03;14.17;;;9.18;;
66669;SDS011;53568;52.164;4.472;2023-02-01T04:29:28;15.00;;;9.48;;
66669;SDS011;53568;52.164;4.472;2023-02-01T04:31:54;15.23;;;9.53;;
66669;SDS011;53568;52.164;4.472;2023-02-01T04:34:19;16.41;;;10.20;;
66669;SDS011;53568;52.164;4.472;2023-02-01T04:36:47;16.75;;;10.37;;
66669;SDS011;53568;52.164;4.472;2023-02-01T04:39:13;13.62;;;8.73;;
66669;SDS011;53568;52.164;4.472;2023-02-01T04:41:39;14.07;;;8.90;;
66669;SDS011;53568;52.164;4.472;2023-02-01T04:44:05;14.84;;;9.51;;
66669;SDS011;53568;52.164;4.472;2023-02-01T04:46:30;13.18;;;8.69;;
66669;SDS011;53568;52.164;4.472;2023-02-01T04:48:56;14.54;;;9.31;;
66669;SDS011;53568;52.164;4.472;2023-02-01T04:51:22;14.05;;;9.10;;
66669;SDS011;53568;52.164;4.472;2023-02-01T04:53:47;15.12;;;9.78;;
66669;SDS011;53568;52.164;4.472;2023-02-01T04:56:12;16.02;;;10.13;;
66669;SDS011;53568;52.164;4.472;2023-02-01T04:58:38;13.93;;;9.02;;
66669;SDS011;53568;52.164;4.472;2023-02-01T05:01:04;16.18;;;10.18;;
66669;SDS011;53568;52.164;4.472;2023-02-01T05:03:34;15.57;;;9.86;;
66669;SDS011;53568;52.164;4.472;2023-02-01T05:06:00;16.76;;;10.61;;
66669;SDS011;53568;52.164;4.472;2023-02-01T05:08:26;17.11;;;10.76;;
66669;SDS011;53568;52.164;4.472;2023-02-01T05:10:53;15.93;;;10.25;;
66669;SDS011;53568;52.164;4.472;2023-02-01T05:13:19;13.78;;;9.07;;
66669;SDS011;53568;52.164;4.472;2023-02-01T05:16:03;14.00;;;9.17;;
66669;SDS011;53568;52.164;4.472;2023-02-01T05:18:29;14.89;;;9.59;;
66669;SDS011;53568;52.164;4.472;2023-02-01T05:20:55;15.30;;;9.77;;
66669;SDS011;53568;52.164;4.472;2023-02-01T05:23:20;16.74;;;10.49;;
66669;SDS011;53568;52.164;4.472;2023-02-01T05:25:46;15.80;;;10.08;;
66669;SDS011;53568;52.164;4.472;2023-02-01T05:28:11;15.81;;;10.24;;
66669;SDS011;53568;52.164;4.472;2023-02-01T05:30:37;16.19;;;10.23;;
66669;SDS011;53568;52.164;4.472;2023-02-01T05:33:02;14.17;;;9.26;;
66669;SDS011;53568;52.164;4.472;2023-02-01T05:35:29;14.94;;;9.59;;
66669;SDS011;53568;52.164;4.472;2023-02-01T05:37:55;14.26;;;9.27;;
66669;SDS011;53568;52.164;4.472;2023-02-01T05:40:20;14.35;;;9.25;;
66669;SDS011;53568;52.164;4.472;2023-02-01T05:42:46;14.87;;;9.50;;
66669;SDS011;53568;52.164;4.472;2023-02-01T05:45:12;14.29;;;9.24;;
66669;SDS011;53568;52.164;4.472;2023-02-01T05:47:37;14.57;;;9.27;;
66669;SDS011;53568;52.164;4.472;2023-02-01T05:50:03;14.51;;;9.26;;
66669;SDS011;53568;52.164;4.472;2023-02-01T05:52:30;15.49;;;9.90;;
66669;SDS011;53568;52.164;4.472;2023-02-01T05:54:55;15.85;;;10.18;;
66669;SDS011;53568;52.164;4.472;2023-02-01T05:57:21;15.81;;;10.08;;
66669;SDS011;53568;52.164;4.472;2023-02-01T05:59:46;14.82;;;9.53;;
66669;SDS011;53568;52.164;4.472;2023-02-01T06:02:14;15.93;;;10.00;;
66669;SDS011;53568;52.164;4.472;2023-02-01T06:04:40;17.13;;;10.81;;
66669;SDS011;53568;52.164;4.472;2023-02-01T06:07:06;16.10;;;10.32;;
66669;SDS011;53568;52.164;4.472;2023-02-01T06:09:34;15.16;;;9.68;;
66669;SDS011;53568;52.164;4.472;2023-02-01T06:12:00;15.33;;;9.90;;
66669;SDS011;53568;52.164;4.472;2023-02-01T06:14:26;15.78;;;10.09;;
66669;SDS011;53568;52.164;4.472;2023-02-01T06:16:53;15.53;;;9.95;;
66669;SDS011;53568;52.164;4.472;2023-02-01T06:19:19;15.26;;;9.85;;
66669;SDS011;53568;52.164;4.472;2023-02-01T06:21:44;14.73;;;9.59;;
66669;SDS011;53568;52.164;4.472;2023-02-01T06:24:10;15.62;;;10.07;;
66669;SDS011;53568;52.164;4.472;2023-02-01T06:26:36;14.69;;;9.49;;
66669;SDS011;53568;52.164;4.472;2023-02-01T06:29:02;14.14;;;9.14;;
66669;SDS011;53568;52.164;4.472;2023-02-01T06:31:28;14.40;;;9.22;;
66669;SDS011;53568;52.164;4.472;2023-02-01T06:33:53;14.59;;;9.32;;
66669;SDS011;53568;52.164;4.472;2023-02-01T06:36:19;14.63;;;9.26;;
66669;SDS011;53568;52.164;4.472;2023-02-01T06:38:46;15.74;;;9.92;;
66669;SDS011;53568;52.164;4.472;2023-02-01T06:41:13;13.59;;;8.68;;
66669;SDS011;53568;52.164;4.472;2023-02-01T06:43:38;13.71;;;8.97;;
66669;SDS011;53568;52.164;4.472;2023-02-01T06:46:05;14.37;;;9.25;;
66669;SDS011;53568;52.164;4.472;2023-02-01T06:48:33;14.16;;;9.25;;
66669;SDS011;53568;52.164;4.472;2023-02-01T06:50:59;15.44;;;9.78;;
66669;SDS011;53568;52.164;4.472;2023-02-01T06:53:25;14.51;;;9.23;;
66669;SDS011;53568;52.164;4.472;2023-02-01T06:55:52;15.15;;;9.74;;
66669;SDS011;53568;52.164;4.472;2023-02-01T06:58:21;14.79;;;9.58;;
66669;SDS011;53568;52.164;4.472;2023-02-01T07:00:48;14.29;;;9.22;;
66669;SDS011;53568;52.164;4.472;2023-02-01T07:03:13;15.35;;;9.81;;
66669;SDS011;53568;52.164;4.472;2023-02-01T07:05:39;13.92;;;8.99;;
66669;SDS011;53568;52.164;4.472;2023-02-01T07:08:05;14.01;;;9.02;;
66669;SDS011;53568;52.164;4.472;2023-02-01T07:10:30;13.05;;;8.44;;
66669;SDS011;53568;52.164;4.472;2023-02-01T07:12:56;14.79;;;9.55;;
66669;SDS011;53568;52.164;4.472;2023-02-01T07:15:23;13.74;;;8.92;;
66669;SDS011;53568;52.164;4.472;2023-02-01T07:17:53;13.52;;;8.82;;
66669;SDS011;53568;52.164;4.472;2023-02-01T07:20:19;13.14;;;8.60;;
66669;SDS011;53568;52.164;4.472;2023-02-01T07:22:45;14.35;;;9.14;;
66669;SDS011;53568;52.164;4.472;2023-02-01T07:25:10;13.20;;;8.60;;
66669;SDS011;53568;52.164;4.472;2023-02-01T07:27:36;13.66;;;8.83;;
66669;SDS011;53568;52.164;4.472;2023-02-01T07:30:03;12.99;;;8.53;;
66669;SDS011;53568;52.164;4.472;2023-02-01T07:32:29;13.29;;;8.67;;
66669;SDS011;53568;52.164;4.472;2023-02-01T07:34:55;14.28;;;9.33;;
66669;SDS011;53568;52.164;4.472;2023-02-01T07:37:21;15.87;;;10.25;;
66669;SDS011;53568;52.164;4.472;2023-02-01T07:39:46;13.56;;;8.78;;
66669;SDS011;53568;52.164;4.472;2023-02-01T07:42:12;13.29;;;8.68;;
66669;SDS011;53568;52.164;4.472;2023-02-01T07:45:11;14.31;;;9.28;;
66669;SDS011;53568;52.164;4.472;2023-02-01T07:47:31;14.50;;;9.37;;
66669;SDS011;53568;52.164;4.472;2023-02-01T07:49:56;15.32;;;9.64;;
66669;SDS011;53568;52.164;4.472;2023-02-01T07:52:22;15.39;;;9.71;;
66669;SDS011;53568;52.164;4.472;2023-02-01T07:54:47;13.77;;;8.75;;
66669;SDS011;53568;52.164;4.472;2023-02-01T07:57:13;12.83;;;8.37;;
66669;SDS011;53568;52.164;4.472;2023-02-01T07:59:38;13.80;;;8.94;;
66669;SDS011;53568;52.164;4.472;2023-02-01T08:02:24;14.51;;;9.31;;
66669;SDS011;53568;52.164;4.472;2023-02-01T08:04:50;13.29;;;8.73;;
66669;SDS011;53568;52.164;4.472;2023-02-01T08:07:15;13.23;;;8.72;;
66669;SDS011;53568;52.164;4.472;2023-02-01T08:09:41;14.31;;;9.16;;
66669;SDS011;53568;52.164;4.472;2023-02-01T08:12:06;14.08;;;9.07;;
66669;SDS011;53568;52.164;4.472;2023-02-01T08:14:32;13.07;;;8.50;;
66669;SDS011;53568;52.164;4.472;2023-02-01T08:16:57;12.53;;;8.08;;
66669;SDS011;53568;52.164;4.472;2023-02-01T08:19:23;13.13;;;8.52;;
66669;SDS011;53568;52.164;4.472;2023-02-01T08:21:49;13.49;;;8.81;;
66669;SDS011;53568;52.164;4.472;2023-02-01T08:24:14;14.47;;;9.38;;
66669;SDS011;53568;52.164;4.472;2023-02-01T08:26:40;12.53;;;8.27;;
66669;SDS011;53568;52.164;4.472;2023-02-01T08:29:07;13.65;;;8.74;;
66669;SDS011;53568;52.164;4.472;2023-02-01T08:31:38;14.35;;;9.28;;
66669;SDS011;53568;52.164;4.472;2023-02-01T08:34:07;13.43;;;8.67;;
66669;SDS011;53568;52.164;4.472;2023-02-01T08:36:34;14.53;;;9.21;;
66669;SDS011;53568;52.164;4.472;2023-02-01T08:39:00;15.23;;;9.57;;
66669;SDS011;53568;52.164;4.472;2023-02-01T08:41:28;14.14;;;9.15;;
66669;SDS011;53568;52.164;4.472;2023-02-01T08:43:55;14.29;;;9.17;;
66669;SDS011;53568;52.164;4.472;2023-02-01T08:46:22;15.74;;;9.95;;
66669;SDS011;53568;52.164;4.472;2023-02-01T08:48:48;13.70;;;8.88;;
66669;SDS011;53568;52.164;4.472;2023-02-01T08:51:16;14.51;;;9.38;;
66669;SDS011;53568;52.164;4.472;2023-02-01T08:53:44;14.65;;;9.53;;
66669;SDS011;53568;52.164;4.472;2023-02-01T08:56:10;13.69;;;8.94;;
66669;SDS011;53568;52.164;4.472;2023-02-01T08:58:37;12.67;;;8.51;;
66669;SDS011;53568;52.164;4.472;2023-02-01T09:01:07;13.39;;;8.76;;
66669;SDS011;53568;52.164;4.472;2023-02-01T09:03:35;12.70;;;8.24;;
66669;SDS011;53568;52.164;4.472;2023-02-01T09:06:05;14.14;;;9.00;;
66669;SDS011;53568;52.164;4.472;2023-02-01T09:08:33;13.90;;;8.88;;
66669;SDS011;53568;52.164;4.472;2023-02-01T09:11:04;12.86;;;8.39;;
66669;SDS011;53568;52.164;4.472;2023-02-01T09:13:32;12.57;;;8.22;;
66669;SDS011;53568;52.164;4.472;2023-02-01T09:15:58;13.37;;;8.71;;
66669;SDS011;53568;52.164;4.472;2023-02-01T09:18:25;13.48;;;8.76;;
66669;SDS011;53568;52.164;4.472;2023-02-01T09:20:50;13.23;;;8.49;;
66669;SDS011;53568;52.164;4.472;2023-02-01T09:23:16;14.23;;;9.09;;
66669;SDS011;53568;52.164;4.472;2023-02-01T09:25:41;15.56;;;9.88;;
66669;SDS011;53568;52.164;4.472;2023-02-01T09:28:07;14.39;;;9.22;;
66669;SDS011;53568;52.164;4.472;2023-02-01T09:30:34;14.43;;;9.22;;
66669;SDS011;53568;52.164;4.472;2023-02-01T09:33:01;16.22;;;10.20;;
66669;SDS011;53568;52.164;4.472;2023-02-01T09:35:27;14.65;;;9.34;;
66669;SDS011;53568;52.164;4.472;2023-02-01T09:37:53;14.75;;;9.33;;
66669;SDS011;53568;52.164;4.472;2023-02-01T09:40:19;14.55;;;9.29;;
66669;SDS011;53568;52.164;4.472;2023-02-01T09:45:17;13.97;;;9.03;;
66669;SDS011;53568;52.164;4.472;2023-02-01T09:47:55;14.08;;;9.25;;
66669;SDS011;53568;52.164;4.472;2023-02-01T09:50:32;13.19;;;8.69;;
66669;SDS011;53568;52.164;4.472;2023-02-01T09:55:41;14.39;;;9.48;;
66669;SDS011;53568;52.164;4.472;2023-02-01T10:00:53;17.21;;;10.77;;
66669;SDS011;53568;52.164;4.472;2023-02-01T10:03:23;15.83;;;9.83;;
66669;SDS011;53568;52.164;4.472;2023-02-01T10:11:46;15.90;;;10.01;;
66669;SDS011;53568;52.164;4.472;2023-02-01T10:20:16;15.36;;;9.76;;
66669;SDS011;53568;52.164;4.472;2023-02-01T10:28:21;15.85;;;10.15;;
66669;SDS011;53568;52.164;4.472;2023-02-01T10:30:51;15.22;;;9.63;;
66669;SDS011;53568;52.164;4.472;2023-02-01T10:33:23;16.38;;;10.54;;
66669;SDS011;53568;52.164;4.472;2023-02-01T10:36:12;15.41;;;9.98;;
66669;SDS011;53568;52.164;4.472;2023-02-01T10:38:42;15.88;;;10.11;;
66669;SDS011;53568;52.164;4.472;2023-02-01T10:41:12;17.65;;;11.00;;
66669;SDS011;53568;52.164;4.472;2023-02-01T10:43:42;17.73;;;10.97;;
66669;SDS011;53568;52.164;4.472;2023-02-01T10:46:11;16.86;;;10.58;;
66669;SDS011;53568;52.164;4.472;2023-02-01T10:48:36;15.75;;;9.96;;
66669;SDS011;53568;52.164;4.472;2023-02-01T10:53:38;16.72;;;10.50;;
66669;SDS011;53568;52.164;4.472;2023-02-01T10:56:11;15.50;;;9.86;;
66669;SDS011;53568;52.164;4.472;2023-02-01T10:58:45;15.09;;;9.51;;
66669;SDS011;53568;52.164;4.472;2023-02-01T11:01:16;14.14;;;8.95;;
66669;SDS011;53568;52.164;4.472;2023-02-01T11:06:33;15.56;;;9.86;;
66669;SDS011;53568;52.164;4.472;2023-02-01T11:14:15;15.29;;;9.59;;
66669;SDS011;53568;52.164;4.472;2023-02-01T11:19:22;15.36;;;9.62;;
66669;SDS011;53568;52.164;4.472;2023-02-01T11:21:51;15.99;;;10.02;;
66669;SDS011;53568;52.164;4.472;2023-02-01T11:26:48;14.95;;;9.34;;
66669;SDS011;53568;52.164;4.472;2023-02-01T11:29:17;15.57;;;9.66;;
66669;SDS011;53568;52.164;4.472;2023-02-01T11:31:48;15.87;;;9.81;;
66669;SDS011;53568;52.164;4.472;2023-02-01T11:34:16;15.59;;;9.80;;
66669;SDS011;53568;52.164;4.472;2023-02-01T11:36:46;14.92;;;9.36;;
66669;SDS011;53568;52.164;4.472;2023-02-01T11:41:41;15.45;;;9.75;;
66669;SDS011;53568;52.164;4.472;2023-02-01T11:44:21;16.02;;;9.97;;
66669;SDS011;53568;52.164;4.472;2023-02-01T11:46:51;15.62;;;9.57;;
66669;SDS011;53568;52.164;4.472;2023-02-01T11:49:21;15.27;;;9.60;;
66669;SDS011;53568;52.164;4.472;2023-02-01T11:52:02;15.67;;;9.74;;
66669;SDS011;53568;52.164;4.472;2023-02-01T11:54:37;15.61;;;9.72;;
66669;SDS011;53568;52.164;4.472;2023-02-01T11:57:22;15.78;;;9.85;;
66669;SDS011;53568;52.164;4.472;2023-02-01T12:08:11;15.53;;;9.87;;
66669;SDS011;53568;52.164;4.472;2023-02-01T12:11:36;15.24;;;9.58;;
66669;SDS011;53568;52.164;4.472;2023-02-01T12:14:01;15.59;;;9.76;;
66669;SDS011;53568;52.164;4.472;2023-02-01T12:17:01;15.08;;;9.62;;
66669;SDS011;53568;52.164;4.472;2023-02-01T12:23:02;16.10;;;10.16;;
66669;SDS011;53568;52.164;4.472;2023-02-01T12:25:44;15.36;;;9.74;;
66669;SDS011;53568;52.164;4.472;2023-02-01T12:36:30;15.36;;;9.54;;
66669;SDS011;53568;52.164;4.472;2023-02-01T12:39:32;14.26;;;8.98;;
66669;SDS011;53568;52.164;4.472;2023-02-01T12:42:15;14.22;;;9.07;;
66669;SDS011;53568;52.164;4.472;2023-02-01T12:45:20;16.36;;;10.30;;
66669;SDS011;53568;52.164;4.472;2023-02-01T12:48:50;15.44;;;9.83;;
66669;SDS011;53568;52.164;4.472;2023-02-01T12:50:50;14.91;;;9.59;;
66669;SDS011;53568;52.164;4.472;2023-02-01T12:53:32;14.91;;;9.46;;
66669;SDS011;53568;52.164;4.472;2023-02-01T12:56:15;14.71;;;9.40;;
66669;SDS011;53568;52.164;4.472;2023-02-01T12:58:53;14.10;;;8.94;;
66669;SDS011;53568;52.164;4.472;2023-02-01T13:06:47;15.46;;;9.60;;
66669;SDS011;53568;52.164;4.472;2023-02-01T13:09:26;16.67;;;10.23;;
66669;SDS011;53568;52.164;4.472;2023-02-01T13:12:11;15.70;;;9.85;;
66669;SDS011;53568;52.164;4.472;2023-02-01T13:17:22;16.29;;;10.22;;
66669;SDS011;53568;52.164;4.472;2023-02-01T13:22:54;16.34;;;10.28;;
66669;SDS011;53568;52.164;4.472;2023-02-01T13:25:35;15.52;;;9.88;;
66669;SDS011;53568;52.164;4.472;2023-02-01T13:28:12;16.08;;;10.06;;
66669;SDS011;53568;52.164;4.472;2023-02-01T13:42:00;15.47;;;9.91;;
66669;SDS011;53568;52.164;4.472;2023-02-01T13:44:40;16.94;;;10.70;;
66669;SDS011;53568;52.164;4.472;2023-02-01T13:47:47;16.96;;;10.88;;
66669;SDS011;53568;52.164;4.472;2023-02-01T13:50:19;17.80;;;11.16;;
66669;SDS011;53568;52.164;4.472;2023-02-01T13:55:33;17.39;;;10.80;;
66669;SDS011;53568;52.164;4.472;2023-02-01T14:00:39;15.57;;;9.83;;
66669;SDS011;53568;52.164;4.472;2023-02-01T14:03:09;14.60;;;9.34;;
66669;SDS011;53568;52.164;4.472;2023-02-01T14:13:51;16.93;;;10.72;;
66669;SDS011;53568;52.164;4.472;2023-02-01T14:21:15;15.98;;;10.17;;
66669;SDS011;53568;52.164;4.472;2023-02-01T14:23:58;15.09;;;9.80;;
66669;SDS011;53568;52.164;4.472;2023-02-01T14:29:14;15.83;;;10.09;;
66669;SDS011;53568;52.164;4.472;2023-02-01T14:47:42;14.35;;;9.24;;
66669;SDS011;53568;52.164;4.472;2023-02-01T15:03:45;17.16;;;10.79;;
66669;SDS011;53568;52.164;4.472;2023-02-01T15:11:55;15.68;;;9.92;;
66669;SDS011;53568;52.164;4.472;2023-02-01T15:14:23;15.69;;;10.17;;
66669;SDS011;53568;52.164;4.472;2023-02-01T15:16:49;13.17;;;8.73;;
66669;SDS011;53568;52.164;4.472;2023-02-01T15:19:21;13.10;;;8.83;;
66669;SDS011;53568;52.164;4.472;2023-02-01T15:21:50;14.95;;;9.73;;
66669;SDS011;53568;52.164;4.472;2023-02-01T15:24:19;15.05;;;9.83;;
66669;SDS011;53568;52.164;4.472;2023-02-01T15:26:53;14.86;;;9.60;;
66669;SDS011;53568;52.164;4.472;2023-02-01T15:29:20;14.52;;;9.52;;
66669;SDS011;53568;52.164;4.472;2023-02-01T15:31:53;13.79;;;9.01;;
66669;SDS011;53568;52.164;4.472;2023-02-01T15:34:19;12.57;;;8.48;;
66669;SDS011;53568;52.164;4.472;2023-02-01T15:36:46;14.05;;;9.31;;
66669;SDS011;53568;52.164;4.472;2023-02-01T15:41:48;14.05;;;9.30;;
66669;SDS011;53568;52.164;4.472;2023-02-01T15:47:10;14.08;;;9.19;;
66669;SDS011;53568;52.164;4.472;2023-02-01T15:49:45;14.73;;;9.49;;
66669;SDS011;53568;52.164;4.472;2023-02-01T15:52:36;14.72;;;9.59;;
66669;SDS011;53568;52.164;4.472;2023-02-01T15:55:05;15.11;;;9.73;;
66669;SDS011;53568;52.164;4.472;2023-02-01T15:57:43;15.44;;;9.87;;
66669;SDS011;53568;52.164;4.472;2023-02-01T16:02:57;15.19;;;9.73;;
66669;SDS011;53568;52.164;4.472;2023-02-01T16:05:34;14.54;;;9.43;;
66669;SDS011;53568;52.164;4.472;2023-02-01T16:08:10;14.29;;;9.41;;
66669;SDS011;53568;52.164;4.472;2023-02-01T16:10:41;15.39;;;9.95;;
66669;SDS011;53568;52.164;4.472;2023-02-01T16:13:09;16.52;;;10.55;;
66669;SDS011;53568;52.164;4.472;2023-02-01T16:15:35;16.11;;;10.17;;
66669;SDS011;53568;52.164;4.472;2023-02-01T16:18:00;16.21;;;10.25;;
66669;SDS011;53568;52.164;4.472;2023-02-01T16:20:26;16.79;;;10.61;;
66669;SDS011;53568;52.164;4.472;2023-02-01T16:22:52;15.93;;;10.13;;
66669;SDS011;53568;52.164;4.472;2023-02-01T16:25:17;14.98;;;9.70;;
66669;SDS011;53568;52.164;4.472;2023-02-01T16:27:43;15.42;;;10.03;;
66669;SDS011;53568;52.164;4.472;2023-02-01T16:30:09;14.74;;;9.59;;
66669;SDS011;53568;52.164;4.472;2023-02-01T16:32:35;15.69;;;9.90;;
66669;SDS011;53568;52.164;4.472;2023-02-01T16:35:03;15.76;;;9.97;;
66669;SDS011;53568;52.164;4.472;2023-02-01T16:37:30;15.68;;;9.99;;
66669;SDS011;53568;52.164;4.472;2023-02-01T16:39:58;15.19;;;9.72;;
66669;SDS011;53568;52.164;4.472;2023-02-01T16:42:24;14.87;;;9.59;;
66669;SDS011;53568;52.164;4.472;2023-02-01T16:44:49;15.30;;;9.83;;
66669;SDS011;53568;52.164;4.472;2023-02-01T16:47:18;16.19;;;10.21;;
66669;SDS011;53568;52.164;4.472;2023-02-01T16:49:47;15.21;;;9.75;;
66669;SDS011;53568;52.164;4.472;2023-02-01T16:52:19;16.91;;;10.81;;
66669;SDS011;53568;52.164;4.472;2023-02-01T16:54:47;15.77;;;9.97;;
66669;SDS011;53568;52.164;4.472;2023-02-01T16:57:14;15.19;;;9.82;;
66669;SDS011;53568;52.164;4.472;2023-02-01T16:59:42;15.35;;;9.85;;
66669;SDS011;53568;52.164;4.472;2023-02-01T17:02:11;15.59;;;10.14;;
66669;SDS011;53568;52.164;4.472;2023-02-01T17:04:38;15.87;;;10.01;;
66669;SDS011;53568;52.164;4.472;2023-02-01T17:07:03;15.83;;;10.03;;
66669;SDS011;53568;52.164;4.472;2023-02-01T17:09:35;15.39;;;9.91;;
66669;SDS011;53568;52.164;4.472;2023-02-01T17:12:01;16.11;;;10.15;;
66669;SDS011;53568;52.164;4.472;2023-02-01T17:14:29;15.10;;;9.62;;
66669;SDS011;53568;52.164;4.472;2023-02-01T17:16:57;16.56;;;10.37;;
66669;SDS011;53568;52.164;4.472;2023-02-01T17:19:23;16.82;;;10.58;;
66669;SDS011;53568;52.164;4.472;2023-02-01T17:21:49;16.49;;;10.46;;
66669;SDS011;53568;52.164;4.472;2023-02-01T17:24:20;16.41;;;10.28;;
66669;SDS011;53568;52.164;4.472;2023-02-01T17:26:49;16.02;;;10.24;;
66669;SDS011;53568;52.164;4.472;2023-02-01T17:29:16;16.06;;;10.29;;
66669;SDS011;53568;52.164;4.472;2023-02-01T17:31:43;15.29;;;9.83;;
66669;SDS011;53568;52.164;4.472;2023-02-01T17:34:12;16.55;;;10.44;;
66669;SDS011;53568;52.164;4.472;2023-02-01T17:36:43;16.41;;;10.40;;
66669;SDS011;53568;52.164;4.472;2023-02-01T17:39:10;17.22;;;10.85;;
66669;SDS011;53568;52.164;4.472;2023-02-01T17:41:57;16.31;;;10.34;;
66669;SDS011;53568;52.164;4.472;2023-02-01T17:44:23;17.02;;;10.86;;
66669;SDS011;53568;52.164;4.472;2023-02-01T17:46:49;15.29;;;9.78;;
66669;SDS011;53568;52.164;4.472;2023-02-01T17:49:14;13.85;;;9.04;;
66669;SDS011;53568;52.164;4.472;2023-02-01T17:51:40;14.29;;;9.32;;
66669;SDS011;53568;52.164;4.472;2023-02-01T17:54:08;16.73;;;10.63;;
66669;SDS011;53568;52.164;4.472;2023-02-01T17:56:37;16.22;;;10.28;;
66669;SDS011;53568;52.164;4.472;2023-02-01T17:59:03;15.66;;;9.91;;
66669;SDS011;53568;52.164;4.472;2023-02-01T18:01:28;16.23;;;10.20;;